Time;durP1;ratioP1;P1;durP2;ratioP2;P2;SDS_P1;SDS_P2;PMS_P1;PMS_P2;Temp;Humidity;BMP_temperature;BMP_pressure;BME280_temperature;BME280_humidity;BME280_pressure;Samples;Min_cycle;Max_cycle;Signal;HPM_P1;HPM_P2
2024/03/07 00:01:05;;;;;;;25.80;13.10;;;;;;;7.96;39.04;100943.55;108067;1257;72650;-68
2024/03/07 00:03:32;;;;;;;25.60;12.60;;;;;;;8.00;38.92;100942.44;108049;1254;60791;-66
2024/03/07 00:06:00;;;;;;;20.50;12.00;;;;;;;8.05;38.56;100943.27;108052;1254;59460;-66
2024/03/07 00:08:29;;;;;;;26.50;12.90;;;;;;;8.03;38.58;100942.58;108107;1254;71563;-67
2024/03/07 00:10:57;;;;;;;24.50;12.80;;;;;;;8.04;38.53;100940.46;108091;1259;70504;-63
2024/03/07 00:13:24;;;;;;;21.80;11.60;;;;;;;8.12;38.61;100936.86;108031;1254;72652;-67
2024/03/07 00:15:52;;;;;;;23.90;12.50;;;;;;;8.18;38.21;100934.67;108046;1254;60973;-67
2024/03/07 00:18:20;;;;;;;25.10;14.50;;;;;;;8.21;38.26;100931.13;108088;1254;60031;-67
2024/03/07 00:20:48;;;;;;;29.30;15.00;;;;;;;8.15;38.42;100931.21;108083;1254;73360;-66
2024/03/07 00:23:16;;;;;;;24.30;12.70;;;;;;;8.30;38.33;100929.79;108080;1254;69470;-66
2024/03/07 00:25:45;;;;;;;28.70;12.70;;;;;;;8.27;37.96;100929.13;108084;1254;72821;-66
2024/03/07 00:28:12;;;;;;;25.00;13.10;;;;;;;8.22;38.27;100931.45;108024;1254;61688;-65
2024/03/07 00:30:40;;;;;;;22.60;12.40;;;;;;;8.19;38.42;100929.07;108021;1254;60209;-65
2024/03/07 00:33:08;;;;;;;22.10;12.50;;;;;;;8.18;38.29;100926.10;107899;1254;72042;-67
2024/03/07 00:35:35;;;;;;;21.00;11.80;;;;;;;8.20;38.34;100926.41;107944;1254;70206;-67
2024/03/07 00:38:03;;;;;;;20.10;12.20;;;;;;;8.20;38.13;100924.84;107927;1254;72320;-66
2024/03/07 00:40:32;;;;;;;19.10;11.00;;;;;;;8.21;38.25;100926.40;107969;1254;60710;-66
2024/03/07 00:43:00;;;;;;;22.80;12.40;;;;;;;8.28;38.04;100921.77;107928;1254;59761;-64
2024/03/07 00:45:27;;;;;;;19.80;11.20;;;;;;;8.31;37.84;100925.04;107945;1254;73173;-67
2024/03/07 00:47:55;;;;;;;23.00;12.70;;;;;;;8.40;38.08;100925.95;107808;1254;68234;-65
2024/03/07 00:50:22;;;;;;;20.70;11.30;;;;;;;8.43;37.92;100923.46;107913;1256;72659;-66
2024/03/07 00:52:50;;;;;;;25.20;11.80;;;;;;;8.37;37.95;100924.08;107909;1256;61664;-67
2024/03/07 00:55:17;;;;;;;22.70;12.50;;;;;;;8.33;37.95;100924.84;107939;1254;59987;-66
2024/03/07 00:57:46;;;;;;;23.10;11.40;;;;;;;8.29;37.87;100923.84;107947;1254;73153;-67
2024/03/07 01:00:14;;;;;;;26.00;11.70;;;;;;;8.44;37.91;100923.30;107958;1254;68797;-65
2024/03/07 01:02:43;;;;;;;21.70;11.70;;;;;;;8.64;37.52;100924.03;107896;1256;71366;-67
2024/03/07 01:05:13;;;;;;;27.10;13.20;;;;;;;8.57;37.68;100922.74;107911;1257;61034;-66
2024/03/07 01:07:41;;;;;;;27.60;12.40;;;;;;;8.57;37.67;100921.17;107945;1254;60078;-66
2024/03/07 01:10:09;;;;;;;22.90;12.30;;;;;;;8.46;37.68;100917.48;107975;1254;71869;-66
2024/03/07 01:12:37;;;;;;;19.20;10.60;;;;;;;8.55;37.76;100921.19;107992;1254;69475;-67
2024/03/07 01:15:05;;;;;;;24.30;12.90;;;;;;;8.58;37.77;100919.23;107904;1254;72672;-66
2024/03/07 01:17:33;;;;;;;23.50;12.00;;;;;;;8.56;37.79;100921.20;107939;1254;61647;-66
2024/03/07 01:20:01;;;;;;;21.80;12.80;;;;;;;8.47;38.00;100917.31;107938;1254;58980;-65
2024/03/07 01:22:29;;;;;;;24.60;12.20;;;;;;;8.49;37.87;100921.64;107947;1254;72920;-66
2024/03/07 01:24:56;;;;;;;23.60;12.50;;;;;;;8.61;37.66;100920.94;107897;1254;69969;-65
2024/03/07 01:27:24;;;;;;;21.00;11.80;;;;;;;8.52;37.88;100921.94;107916;1254;72476;-66
2024/03/07 01:29:53;;;;;;;22.40;11.90;;;;;;;8.46;38.07;100923.09;107913;1254;60421;-64
2024/03/07 01:32:21;;;;;;;24.70;12.70;;;;;;;8.50;37.92;100923.02;107978;1254;60063;-67
2024/03/07 01:34:49;;;;;;;20.90;11.70;;;;;;;8.37;38.08;100922.86;108084;1254;71851;-66
2024/03/07 01:37:16;;;;;;;22.00;11.90;;;;;;;8.34;37.98;100919.40;108084;1253;69035;-66
2024/03/07 01:39:43;;;;;;;20.10;12.30;;;;;;;8.25;38.28;100920.93;108111;1254;72588;-66
2024/03/07 01:42:11;;;;;;;21.50;11.50;;;;;;;8.18;38.33;100919.64;108178;1254;60370;-66
2024/03/07 01:44:41;;;;;;;20.00;10.50;;;;;;;8.24;38.36;100920.08;108108;1254;60334;-66
2024/03/07 01:47:09;;;;;;;22.10;11.40;;;;;;;8.31;38.61;100916.81;108127;1254;72630;-67
2024/03/07 01:49:36;;;;;;;26.60;12.20;;;;;;;8.26;38.49;100919.16;107954;1254;69562;-66
2024/03/07 01:52:05;;;;;;;27.50;13.40;;;;;;;8.15;38.39;100917.73;107816;1254;72450;-66
2024/03/07 01:54:32;;;;;;;32.30;14.50;;;;;;;8.12;38.36;100919.88;108035;1259;64563;-66
2024/03/07 01:57:00;;;;;;;26.80;14.20;;;;;;;8.19;38.25;100915.77;107920;1254;60747;-67
2024/03/07 01:59:29;;;;;;;28.10;14.00;;;;;;;8.14;38.37;100918.29;107900;1253;72321;-67
2024/03/07 02:01:57;;;;;;;26.70;12.80;;;;;;;8.06;38.32;100919.80;108034;1253;70297;-66
2024/03/07 02:04:25;;;;;;;28.40;12.90;;;;;;;8.06;38.35;100919.63;107886;1254;72688;-67
2024/03/07 02:06:53;;;;;;;29.30;14.00;;;;;;;8.04;38.60;100920.52;108036;1257;61690;-66
2024/03/07 02:09:21;;;;;;;28.70;13.80;;;;;;;8.05;38.63;100922.09;108012;1254;59691;-66
2024/03/07 02:11:49;;;;;;;24.90;13.20;;;;;;;8.10;38.59;100923.59;108008;1253;71793;-67
2024/03/07 02:14:17;;;;;;;22.00;12.70;;;;;;;8.23;38.40;100922.70;107973;1253;69339;-67
2024/03/07 02:16:45;;;;;;;24.40;13.20;;;;;;;8.35;38.18;100919.55;107991;1254;72628;-67
2024/03/07 02:19:14;;;;;;;22.60;13.20;;;;;;;8.30;38.36;100920.33;107985;1253;62005;-67
2024/03/07 02:21:42;;;;;;;27.50;13.70;;;;;;;8.26;38.35;100923.02;108004;1254;60354;-67
2024/03/07 02:24:09;;;;;;;26.30;13.70;;;;;;;8.34;38.31;100921.84;107968;1254;72714;-67
2024/03/07 02:26:39;;;;;;;29.60;13.60;;;;;;;8.42;38.15;100921.74;108046;1254;70179;-66
2024/03/07 02:29:07;;;;;;;27.00;13.60;;;;;;;8.36;38.01;100923.93;108000;1256;71480;-67
2024/03/07 02:31:37;;;;;;;25.60;12.60;;;;;;;8.38;38.22;100924.59;108020;1254;61638;-67
2024/03/07 02:34:07;;;;;;;21.30;11.40;;;;;;;8.46;37.86;100922.56;108070;1254;60295;-67
2024/03/07 02:36:34;;;;;;;23.00;12.20;;;;;;;8.41;37.96;100922.28;108113;1253;72603;-66
2024/03/07 02:39:02;;;;;;;22.10;13.50;;;;;;;8.35;38.01;100920.43;108120;1252;70386;-66
2024/03/07 02:41:30;;;;;;;20.40;11.80;;;;;;;8.31;38.05;100919.80;108140;1254;72261;-65
2024/03/07 02:43:58;;;;;;;24.60;13.20;;;;;;;8.29;37.98;100919.29;108084;1254;60645;-65
2024/03/07 02:46:26;;;;;;;26.30;12.40;;;;;;;8.32;37.88;100921.36;108089;1253;60433;-65
2024/03/07 02:48:53;;;;;;;23.90;12.70;;;;;;;8.30;37.78;100918.40;108113;1253;73853;-67
2024/03/07 02:51:21;;;;;;;26.50;13.50;;;;;;;8.30;37.75;100919.11;108134;1254;70061;-66
2024/03/07 02:53:48;;;;;;;22.10;12.30;;;;;;;8.24;37.73;100918.50;108065;1253;72670;-66
2024/03/07 02:56:16;;;;;;;24.90;13.10;;;;;;;8.22;37.91;100915.20;108058;1257;60293;-65
2024/03/07 02:58:44;;;;;;;23.40;12.50;;;;;;;8.15;38.11;100914.08;108048;1253;60402;-66
2024/03/07 03:01:11;;;;;;;20.50;11.50;;;;;;;8.08;38.13;100912.78;108068;1253;73820;-61
2024/03/07 03:03:42;;;;;;;24.90;12.40;;;;;;;8.21;38.11;100912.59;108061;1254;69026;-65
2024/03/07 03:06:10;;;;;;;21.50;11.80;;;;;;;8.14;38.22;100914.96;108067;1253;72988;-64
2024/03/07 03:08:39;;;;;;;20.10;11.80;;;;;;;8.11;38.40;100916.40;108075;1253;60457;-66
2024/03/07 03:11:09;;;;;;;27.90;13.40;;;;;;;8.16;38.21;100915.11;108075;1253;60326;-67
2024/03/07 03:13:40;;;;;;;25.00;13.40;;;;;;;8.26;37.82;100912.70;108047;1254;72639;-66
2024/03/07 03:16:09;;;;;;;21.80;12.10;;;;;;;8.24;38.11;100910.10;108079;1254;70379;-66
2024/03/07 03:18:36;;;;;;;21.40;12.60;;;;;;;8.20;38.16;100911.89;108073;1254;71400;-66
2024/03/07 03:21:04;;;;;;;27.90;14.10;;;;;;;8.19;38.10;100913.16;108083;1254;60428;-66
2024/03/07 03:23:33;;;;;;;24.20;13.10;;;;;;;8.23;38.07;100912.57;108118;1254;60305;-67
2024/03/07 03:26:00;;;;;;;27.70;12.70;;;;;;;8.25;38.21;100913.59;108108;1253;72865;-66
2024/03/07 03:28:28;;;;;;;21.60;11.40;;;;;;;8.18;38.27;100915.59;108276;1254;70251;-67
2024/03/07 03:30:55;;;;;;;23.00;12.60;;;;;;;8.15;38.48;100918.63;108053;1253;71207;-66
2024/03/07 03:33:23;;;;;;;25.50;13.30;;;;;;;8.19;38.19;100921.54;108007;1254;61728;-66
2024/03/07 03:35:51;;;;;;;24.00;13.30;;;;;;;8.23;38.07;100917.29;108002;1254;60141;-67
2024/03/07 03:38:19;;;;;;;26.10;13.30;;;;;;;8.13;38.10;100919.88;108011;1258;72578;-66
2024/03/07 03:40:48;;;;;;;25.20;13.30;;;;;;;8.15;38.02;100922.46;108053;1254;70605;-66
2024/03/07 03:43:15;;;;;;;27.30;13.80;;;;;;;8.04;38.31;100923.50;108029;1254;73063;-67
2024/03/07 03:45:43;;;;;;;27.40;13.00;;;;;;;8.05;38.32;100926.12;107973;1254;62282;-67
2024/03/07 03:48:10;;;;;;;25.70;13.30;;;;;;;8.04;38.16;100924.21;107946;1254;60323;-67
2024/03/07 03:50:38;;;;;;;27.00;13.30;;;;;;;8.05;38.34;100927.16;107975;1254;72555;-67
2024/03/07 03:53:06;;;;;;;25.90;13.20;;;;;;;8.01;38.23;100927.21;107960;1258;70326;-66
2024/03/07 03:55:34;;;;;;;24.30;13.10;;;;;;;8.08;38.24;100928.33;107991;1254;72740;-67
2024/03/07 03:58:01;;;;;;;23.20;13.00;;;;;;;8.07;38.14;100930.10;108017;1254;61693;-66
2024/03/07 04:00:29;;;;;;;24.90;12.90;;;;;;;7.92;38.35;100931.02;108037;1254;60251;-66
2024/03/07 04:02:57;;;;;;;24.20;12.90;;;;;;;8.00;38.11;100928.45;107996;1254;73839;-66
2024/03/07 04:05:24;;;;;;;26.00;12.10;;;;;;;7.98;38.26;100930.23;108076;1254;70174;-66
2024/03/07 04:07:52;;;;;;;23.90;12.50;;;;;;;7.93;38.30;100931.52;107991;1254;71972;-66
2024/03/07 04:10:19;;;;;;;20.10;12.20;;;;;;;8.06;38.04;100930.99;108026;1254;61783;-66
2024/03/07 04:12:47;;;;;;;22.70;12.50;;;;;;;8.08;38.09;100932.17;108071;1256;60262;-66
2024/03/07 04:15:18;;;;;;;29.00;13.70;;;;;;;8.09;38.32;100935.85;108064;1253;72962;-66
2024/03/07 04:17:46;;;;;;;21.60;12.20;;;;;;;8.09;37.93;100936.71;108044;1254;68990;-66
2024/03/07 04:20:17;;;;;;;25.20;12.70;;;;;;;8.10;38.15;100937.92;108009;1254;72711;-67
2024/03/07 04:22:47;;;;;;;23.80;13.00;;;;;;;8.06;38.18;100940.61;107988;1254;60521;-65
2024/03/07 04:25:17;;;;;;;24.20;12.80;;;;;;;8.04;38.36;100937.30;107871;1254;60506;-67
2024/03/07 04:27:45;;;;;;;23.90;13.90;;;;;;;8.11;38.19;100939.84;108007;1253;73870;-67
2024/03/07 04:30:15;;;;;;;27.90;12.70;;;;;;;8.10;37.99;100940.04;108079;1254;69972;-65
2024/03/07 04:32:43;;;;;;;24.50;13.10;;;;;;;8.08;38.18;100940.23;107977;1254;74893;-66
2024/03/07 04:35:10;;;;;;;27.60;13.50;;;;;;;8.06;38.26;100943.92;108078;1253;61640;-66
2024/03/07 04:37:42;;;;;;;27.40;12.30;;;;;;;8.17;37.80;100943.08;108096;1253;60419;-67
2024/03/07 04:40:17;;;;;;;28.70;14.10;;;;;;;8.18;37.62;100940.45;108121;1253;72637;-66
2024/03/07 04:42:48;;;;;;;33.80;14.20;;;;;;;8.06;37.58;100943.06;108067;1254;70378;-66
2024/03/07 04:45:16;;;;;;;23.60;12.70;;;;;;;7.98;37.78;100940.01;108052;1257;73162;-66
2024/03/07 04:47:44;;;;;;;22.30;12.90;;;;;;;8.17;37.71;100946.41;108182;1253;61670;-66
2024/03/07 04:50:13;;;;;;;27.00;11.90;;;;;;;8.34;37.60;100945.99;108219;1253;60351;-67
2024/03/07 04:52:41;;;;;;;20.60;11.70;;;;;;;8.40;37.47;100949.95;108201;1252;73815;-66
2024/03/07 04:55:10;;;;;;;21.90;11.60;;;;;;;8.35;37.56;100949.66;108162;1254;70772;-67
2024/03/07 04:57:39;;;;;;;22.80;12.10;;;;;;;8.42;37.46;100950.78;108226;1253;71413;-65
2024/03/07 05:00:14;;;;;;;25.70;12.80;;;;;;;8.33;37.48;100951.25;108199;1253;61691;-67
2024/03/07 05:02:46;;;;;;;25.70;13.50;;;;;;;8.32;37.30;100955.12;108179;1253;60316;-67
2024/03/07 05:05:14;;;;;;;25.80;14.00;;;;;;;8.09;37.66;100955.44;108187;1252;74157;-67
2024/03/07 05:07:42;;;;;;;28.30;13.20;;;;;;;8.18;37.51;100956.00;108204;1254;68712;-67
2024/03/07 05:10:10;;;;;;;25.10;13.30;;;;;;;8.24;37.24;100956.45;108173;1253;72524;-67
2024/03/07 05:12:37;;;;;;;26.70;14.00;;;;;;;8.25;37.12;100959.77;108090;1253;60834;-67
2024/03/07 05:15:06;;;;;;;27.00;14.00;;;;;;;8.13;37.60;100959.93;108216;1253;60158;-66
2024/03/07 05:17:34;;;;;;;33.20;14.50;;;;;;;7.95;38.28;100961.56;108207;1254;73807;-67
2024/03/07 05:20:09;;;;;;;26.00;13.90;;;;;;;7.81;38.85;100962.09;108157;1254;70705;-67
2024/03/07 05:22:40;;;;;;;24.60;14.30;;;;;;;7.78;38.94;100968.25;108198;1253;70940;-66
2024/03/07 05:25:09;;;;;;;25.40;14.20;;;;;;;7.72;39.10;100969.88;108163;1254;60292;-66
2024/03/07 05:27:36;;;;;;;28.60;14.10;;;;;;;7.84;38.88;100974.11;108168;1253;59007;-66
2024/03/07 05:30:05;;;;;;;33.00;13.90;;;;;;;7.86;38.84;100971.81;108260;1252;72604;-66
2024/03/07 05:32:37;;;;;;;26.70;14.30;;;;;;;7.79;39.04;100975.05;108220;1256;71377;-66
2024/03/07 05:35:07;;;;;;;34.80;15.40;;;;;;;7.88;39.07;100975.99;108156;1253;72690;-67
2024/03/07 05:37:34;;;;;;;27.40;14.60;;;;;;;8.08;38.66;100974.52;108222;1253;61671;-66
2024/03/07 05:40:03;;;;;;;25.30;13.90;;;;;;;8.14;38.63;100973.20;108230;1252;60401;-67
2024/03/07 05:42:31;;;;;;;28.10;14.30;;;;;;;8.13;38.33;100973.23;108163;1253;73870;-66
2024/03/07 05:44:59;;;;;;;25.40;13.90;;;;;;;8.11;38.26;100975.52;108174;1252;69533;-66
2024/03/07 05:47:27;;;;;;;28.70;16.10;;;;;;;8.16;38.32;100976.16;108047;1253;72747;-67
2024/03/07 05:49:55;;;;;;;35.40;15.50;;;;;;;8.18;38.34;100978.57;108224;1252;61560;-66
2024/03/07 05:52:23;;;;;;;32.00;16.90;;;;;;;8.13;38.56;100976.90;108213;1253;60716;-66
2024/03/07 05:54:50;;;;;;;30.50;15.90;;;;;;;8.18;38.60;100983.14;108205;1253;72565;-67
2024/03/07 05:57:18;;;;;;;27.10;14.80;;;;;;;8.27;38.08;100985.11;108197;1253;69402;-66
2024/03/07 05:59:47;;;;;;;29.90;15.10;;;;;;;8.22;38.05;100983.44;108175;1252;72647;-66
2024/03/07 06:02:15;;;;;;;25.10;13.60;;;;;;;8.18;37.89;100987.14;108124;1254;60314;-66
2024/03/07 06:04:43;;;;;;;26.20;14.00;;;;;;;8.06;38.08;100987.84;108210;1252;60070;-66
2024/03/07 06:07:12;;;;;;;26.30;15.70;;;;;;;8.06;38.01;100990.81;108248;1253;72816;-66
2024/03/07 06:09:39;;;;;;;25.50;15.30;;;;;;;8.05;38.02;100989.42;108221;1252;69185;-67
2024/03/07 06:12:08;;;;;;;20.00;12.20;;;;;;;8.02;38.26;100993.66;108209;1252;72696;-67
2024/03/07 06:14:49;;;;;;;22.90;13.20;;;;;;;7.99;38.17;100995.10;108122;1254;60434;-67
2024/03/07 06:17:21;;;;;;;19.70;11.80;;;;;;;8.07;38.07;100993.77;108154;1252;60437;-67
2024/03/07 06:19:49;;;;;;;28.60;13.70;;;;;;;8.03;38.29;100993.13;108117;1256;73853;-67
2024/03/07 06:22:17;;;;;;;25.30;13.80;;;;;;;8.05;38.07;100994.67;108183;1254;67726;-67
2024/03/07 06:24:44;;;;;;;24.50;13.80;;;;;;;8.07;37.93;100999.02;108144;1253;72441;-67
2024/03/07 06:27:26;;;;;;;24.70;13.90;;;;;;;8.07;38.01;100993.76;108200;1253;60998;-67
2024/03/07 06:29:55;;;;;;;21.00;13.10;;;;;;;7.99;38.08;100999.64;108250;1253;59463;-66
2024/03/07 06:32:22;;;;;;;21.70;12.90;;;;;;;7.91;38.20;101001.14;108256;1254;72531;-67
2024/03/07 06:34:50;;;;;;;29.50;12.40;;;;;;;8.03;38.09;100996.44;108153;1252;70372;-67
2024/03/07 06:37:18;;;;;;;26.50;12.60;;;;;;;7.95;38.02;100997.78;108100;1254;71682;-67
2024/03/07 06:39:48;;;;;;;23.00;13.30;;;;;;;8.05;37.92;100995.19;108053;1254;61502;-67
2024/03/07 06:42:15;;;;;;;23.90;12.20;;;;;;;8.03;37.98;100993.65;108047;1254;60084;-66
2024/03/07 06:44:43;;;;;;;22.60;13.00;;;;;;;8.00;37.77;100997.89;108048;1253;74042;-67
2024/03/07 06:47:11;;;;;;;23.40;12.40;;;;;;;8.14;37.66;100998.90;108188;1254;69183;-66
2024/03/07 06:49:40;;;;;;;24.00;13.60;;;;;;;8.10;37.47;101004.58;108096;1252;73694;-67
2024/03/07 06:52:08;;;;;;;27.20;15.00;;;;;;;8.01;37.93;101001.89;108152;1254;61693;-66
2024/03/07 06:54:36;;;;;;;25.40;12.70;;;;;;;7.91;38.17;101010.05;108033;1252;60447;-66
2024/03/07 06:57:04;;;;;;;18.70;11.10;;;;;;;7.93;38.10;101004.79;108052;1254;72877;-66
2024/03/07 06:59:32;;;;;;;21.20;11.80;;;;;;;7.97;38.04;101011.55;108114;1254;68727;-66
2024/03/07 07:01:59;;;;;;;31.20;13.00;;;;;;;7.90;38.07;101013.56;108069;1254;72264;-66
2024/03/07 07:04:35;;;;;;;27.20;13.90;;;;;;;7.86;37.92;101014.48;108035;1252;62240;-66
2024/03/07 07:07:04;;;;;;;22.70;12.50;;;;;;;7.99;37.85;101017.11;108080;1253;61090;-66
2024/03/07 07:09:31;;;;;;;23.10;12.90;;;;;;;7.94;37.77;101015.79;108154;1254;73829;-67
2024/03/07 07:11:58;;;;;;;26.60;12.30;;;;;;;7.95;37.95;101018.23;108115;1254;70338;-67
2024/03/07 07:14:26;;;;;;;19.20;10.60;;;;;;;8.01;37.78;101017.80;108073;1254;72894;-66
2024/03/07 07:16:55;;;;;;;21.70;11.60;;;;;;;8.16;37.72;101017.44;108082;1254;61800;-66
2024/03/07 07:19:23;;;;;;;25.40;11.80;;;;;;;8.20;37.70;101017.92;108042;1254;60358;-68
2024/03/07 07:21:53;;;;;;;18.30;10.60;;;;;;;8.28;37.61;101017.81;108024;1254;73865;-67
2024/03/07 07:24:23;;;;;;;21.30;12.30;;;;;;;8.47;37.62;101021.41;108036;1254;70103;-67
2024/03/07 07:26:51;;;;;;;30.00;12.10;;;;;;;8.56;37.42;101019.73;108027;1254;71282;-67
2024/03/07 07:29:19;;;;;;;22.10;11.80;;;;;;;8.54;37.14;101020.98;108056;1254;60321;-67
2024/03/07 07:31:48;;;;;;;18.60;11.30;;;;;;;8.56;37.25;101019.37;108201;1253;60342;-67
2024/03/07 07:34:15;;;;;;;27.90;14.00;;;;;;;8.46;37.06;101024.07;108126;1252;72653;-67
2024/03/07 07:36:43;;;;;;;25.80;12.80;;;;;;;8.41;37.11;101023.77;108133;1252;69208;-67
2024/03/07 07:39:16;;;;;;;24.30;12.40;;;;;;;8.38;37.15;101022.23;108122;1252;72473;-67
2024/03/07 07:41:44;;;;;;;27.80;13.80;;;;;;;8.39;36.94;101023.96;108038;1254;63187;-67
2024/03/07 07:44:13;;;;;;;22.60;12.50;;;;;;;8.49;36.97;101022.97;108140;1253;60310;-67
2024/03/07 07:46:41;;;;;;;37.40;18.00;;;;;;;8.46;37.13;101025.29;108146;1254;74331;-67
2024/03/07 07:49:09;;;;;;;22.40;13.00;;;;;;;8.47;37.04;101022.30;108132;1254;68860;-67
2024/03/07 07:51:36;;;;;;;33.10;18.10;;;;;;;8.40;37.06;101023.61;108153;1252;73876;-67
2024/03/07 07:54:04;;;;;;;28.70;14.00;;;;;;;8.33;37.26;101025.08;108137;1253;61916;-67
2024/03/07 07:56:32;;;;;;;28.10;17.30;;;;;;;8.49;37.27;101023.85;108182;1252;60453;-66
2024/03/07 07:58:59;;;;;;;48.60;26.40;;;;;;;8.61;36.90;101024.20;108207;1254;75692;-67
2024/03/07 08:01:27;;;;;;;35.40;20.00;;;;;;;8.55;36.81;101027.09;108254;1253;72420;-68
2024/03/07 08:03:55;;;;;;;30.80;14.90;;;;;;;8.55;36.86;101026.21;108191;1252;74561;-67
2024/03/07 08:06:23;;;;;;;35.20;20.00;;;;;;;8.57;36.90;101023.73;108145;1254;60405;-66
2024/03/07 08:08:51;;;;;;;31.30;16.30;;;;;;;8.72;36.70;101028.59;108134;1253;62253;-66
2024/03/07 08:11:19;;;;;;;51.30;25.20;;;;;;;8.86;36.53;101023.48;108219;1253;73930;-66
2024/03/07 08:13:50;;;;;;;38.90;18.40;;;;;;;8.94;36.28;101022.66;108159;1254;69433;-66
2024/03/07 08:16:18;;;;;;;32.70;15.20;;;;;;;9.06;36.44;101027.18;108171;1253;72796;-66
2024/03/07 08:18:45;;;;;;;41.70;20.10;;;;;;;9.14;36.09;101031.08;108151;1253;62308;-66
2024/03/07 08:21:13;;;;;;;38.10;18.20;;;;;;;9.15;35.97;101028.61;108175;1253;61089;-67
2024/03/07 08:23:41;;;;;;;35.70;16.30;;;;;;;9.11;36.13;101030.95;108198;1253;75966;-67
2024/03/07 08:26:09;;;;;;;26.90;13.10;;;;;;;9.07;36.27;101025.95;108144;1253;69190;-67
2024/03/07 08:28:37;;;;;;;18.20;11.10;;;;;;;9.13;36.22;101027.05;108152;1253;71526;-67
2024/03/07 08:31:05;;;;;;;27.00;14.60;;;;;;;9.18;36.07;101028.91;108190;1252;63075;-67
2024/03/07 08:33:33;;;;;;;45.90;20.10;;;;;;;9.30;35.77;101031.85;108205;1252;60457;-67
2024/03/07 08:36:01;;;;;;;30.40;13.90;;;;;;;9.27;35.37;101031.38;108138;1254;74129;-67
2024/03/07 08:38:29;;;;;;;33.00;16.00;;;;;;;9.17;35.66;101032.45;108051;1254;70481;-67
2024/03/07 08:40:56;;;;;;;37.20;15.10;;;;;;;9.17;35.60;101033.81;108031;1254;72906;-67
2024/03/07 08:43:24;;;;;;;26.00;12.40;;;;;;;9.22;35.57;101033.23;108078;1257;61889;-67
2024/03/07 08:45:52;;;;;;;21.40;11.20;;;;;;;9.20;35.55;101033.96;108081;1254;60530;-67
2024/03/07 08:48:20;;;;;;;28.30;13.70;;;;;;;9.19;35.60;101031.34;108077;1258;74477;-67
2024/03/07 08:50:48;;;;;;;18.80;11.10;;;;;;;9.25;35.57;101032.13;108158;1254;69326;-67
2024/03/07 08:53:15;;;;;;;18.00;10.20;;;;;;;9.38;35.31;101034.70;108051;1252;71996;-66
2024/03/07 08:55:43;;;;;;;20.20;11.60;;;;;;;9.51;35.58;101039.02;108109;1254;63110;-67
2024/03/07 08:58:11;;;;;;;17.60;9.90;;;;;;;9.52;35.51;101039.53;108103;1254;60383;-67
2024/03/07 09:00:39;;;;;;;18.10;10.10;;;;;;;9.59;35.79;101039.06;108067;1252;75229;-67
2024/03/07 09:03:09;;;;;;;23.20;11.80;;;;;;;9.66;35.43;101035.59;108027;1254;70663;-67
2024/03/07 09:05:40;;;;;;;18.50;10.40;;;;;;;9.60;35.08;101037.61;108053;1254;72806;-66
2024/03/07 09:08:08;;;;;;;28.60;12.40;;;;;;;9.48;35.21;101039.26;108091;1253;62267;-67
2024/03/07 09:10:36;;;;;;;22.00;11.80;;;;;;;9.63;34.88;101042.14;108143;1254;60381;-67
2024/03/07 09:13:06;;;;;;;25.20;12.10;;;;;;;9.57;34.56;101042.77;108081;1254;75936;-67
2024/03/07 09:15:33;;;;;;;30.70;13.60;;;;;;;9.51;34.40;101045.70;108069;1254;72341;-67
2024/03/07 09:18:03;;;;;;;23.50;12.00;;;;;;;9.40;34.31;101040.09;108054;1258;73632;-67
2024/03/07 09:20:31;;;;;;;21.40;11.30;;;;;;;9.28;34.23;101041.18;108124;1254;60457;-67
2024/03/07 09:23:00;;;;;;;28.80;12.00;;;;;;;9.21;34.41;101042.17;108124;1256;60409;-67
2024/03/07 09:25:28;;;;;;;20.80;11.30;;;;;;;9.19;34.23;101043.27;108081;1258;76127;-67
2024/03/07 09:27:56;;;;;;;31.70;13.30;;;;;;;9.20;34.42;101043.93;108011;1254;70552;-67
2024/03/07 09:30:27;;;;;;;34.30;15.00;;;;;;;9.23;34.40;101045.47;108074;1254;72055;-67
2024/03/07 09:32:55;;;;;;;67.10;28.10;;;;;;;9.35;34.48;101041.75;108043;1257;63075;-67
2024/03/07 09:35:23;;;;;;;55.60;20.40;;;;;;;9.36;34.37;101041.21;108101;1257;61419;-66
2024/03/07 09:37:51;;;;;;;30.30;12.80;;;;;;;9.44;34.46;101039.31;108146;1253;72896;-67
2024/03/07 09:40:24;;;;;;;17.20;10.20;;;;;;;9.57;34.13;101042.95;108152;1255;71246;-66
2024/03/07 09:42:54;;;;;;;19.90;9.80;;;;;;;9.69;34.11;101045.00;108171;1252;71068;-66
2024/03/07 09:45:23;;;;;;;18.40;9.60;;;;;;;9.77;33.91;101039.58;108192;1254;63226;-67
2024/03/07 09:50:18;;;;;;;19.70;10.10;;;;;;;9.33;35.59;101037.83;104879;1290;613872;-68
2024/03/07 09:52:45;;;;;;;21.80;10.70;;;;;;;10.95;32.99;101035.33;107433;1264;59605;-67
2024/03/07 09:55:13;;;;;;;27.30;11.20;;;;;;;10.81;32.55;101032.67;107367;1269;61363;-67
2024/03/07 09:57:40;;;;;;;18.90;10.60;;;;;;;10.69;32.34;101036.11;107265;1266;71936;-66
2024/03/07 10:00:08;;;;;;;29.80;14.10;;;;;;;10.85;32.48;101031.69;107217;1267;71607;-67
2024/03/07 10:02:41;;;;;;;25.70;11.20;;;;;;;11.00;32.14;101030.80;107140;1264;226887;-68
2024/03/07 10:05:09;;;;;;;20.50;10.10;;;;;;;10.87;31.91;101030.42;107379;1262;60099;-67
2024/03/07 10:07:37;;;;;;;27.40;12.50;;;;;;;10.71;32.39;101031.14;107420;1264;60174;-67
2024/03/07 10:10:09;;;;;;;28.60;11.30;;;;;;;10.66;31.99;101027.39;107470;1266;73867;-66
2024/03/07 10:12:37;;;;;;;21.80;10.40;;;;;;;10.67;32.51;101028.44;107700;1260;71499;-65
2024/03/07 10:15:05;;;;;;;22.90;11.10;;;;;;;10.65;32.37;101025.50;107673;1264;72471;-67
2024/03/07 10:17:32;;;;;;;23.40;11.00;;;;;;;10.72;31.82;101027.25;107708;1260;61156;-64
2024/03/07 10:20:00;;;;;;;16.70;9.40;;;;;;;10.64;32.05;101022.70;107659;1261;61374;-67
2024/03/07 10:22:28;;;;;;;22.20;10.60;;;;;;;10.63;32.08;101025.02;108078;1254;72176;-66
2024/03/07 10:24:56;;;;;;;16.60;9.50;;;;;;;10.63;32.33;101018.85;108062;1254;70046;-67
2024/03/07 10:27:27;;;;;;;27.90;12.40;;;;;;;10.60;32.03;101025.42;108178;1254;74019;-66
2024/03/07 10:29:54;;;;;;;21.40;11.10;;;;;;;10.64;32.08;101025.68;108157;1254;62370;-66
2024/03/07 10:32:22;;;;;;;20.80;9.30;;;;;;;10.84;32.35;101021.71;107990;1254;60196;-66
2024/03/07 10:34:53;;;;;;;16.40;9.50;;;;;;;10.90;32.42;101024.02;108068;1257;73789;-65
2024/03/07 10:37:24;;;;;;;17.40;7.90;;;;;;;10.99;31.95;101022.06;108072;1257;71702;-66
2024/03/07 10:39:51;;;;;;;16.10;8.60;;;;;;;11.02;31.81;101018.79;107993;1256;72656;-66
2024/03/07 10:42:19;;;;;;;14.90;9.20;;;;;;;11.09;31.82;101016.86;108008;1256;59867;-67
2024/03/07 10:44:47;;;;;;;22.70;10.90;;;;;;;11.19;31.88;101013.64;108065;1257;59977;-66
2024/03/07 10:47:18;;;;;;;22.10;11.90;;;;;;;11.35;31.56;101014.81;108102;1257;73688;-66
2024/03/07 10:50:14;;;;;;;17.30;9.40;;;;;;;11.36;30.81;101019.35;108095;1257;69561;-68
2024/03/07 10:52:41;;;;;;;22.30;10.10;;;;;;;11.21;30.41;101017.64;108056;1257;73438;-67
2024/03/07 10:55:36;;;;;;;21.80;9.80;;;;;;;10.95;30.69;101018.48;107975;1257;59641;-67
2024/03/07 10:58:11;;;;;;;18.60;8.30;;;;;;;10.88;30.78;101016.02;107904;1259;60258;-67
2024/03/07 11:00:39;;;;;;;105.90;28.80;;;;;;;10.86;30.91;101013.77;107854;1257;71915;-67
2024/03/07 11:03:07;;;;;;;24.40;11.80;;;;;;;10.92;30.86;101017.32;107874;1257;70537;-67
2024/03/07 11:05:34;;;;;;;17.30;9.30;;;;;;;10.93;30.56;101016.41;107965;1260;70353;-67
2024/03/07 11:08:11;;;;;;;21.70;11.10;;;;;;;10.85;30.63;101016.40;108027;1256;59490;-67
2024/03/07 11:10:39;;;;;;;23.00;11.20;;;;;;;10.79;30.81;101012.89;107959;1257;60196;-67
2024/03/07 11:13:10;;;;;;;24.30;11.30;;;;;;;10.68;31.14;101015.41;107984;1257;72751;-67
2024/03/07 11:15:36;;;;;;;33.30;13.50;;;;;;;10.79;31.45;101012.88;107962;1257;69208;-67
2024/03/07 11:18:04;;;;;;;22.20;10.80;;;;;;;11.03;31.25;101013.69;107763;1257;73868;-67